sensor_id;sensor_type;location;lat;lon;timestamp;P1;durP1;ratioP1;P2;durP2;ratioP2
19291;SDS011;9779;51.756;7.450;2022-10-16T00:01:24;5.03;;;3.10;;
19291;SDS011;9779;51.756;7.450;2022-10-16T00:03:53;3.27;;;3.07;;
19291;SDS011;9779;51.756;7.450;2022-10-16T00:06:20;4.37;;;2.77;;
19291;SDS011;9779;51.756;7.450;2022-10-16T00:08:46;2.97;;;2.53;;
19291;SDS011;9779;51.756;7.450;2022-10-16T00:11:15;2.97;;;2.77;;
19291;SDS011;9779;51.756;7.450;2022-10-16T00:13:48;5.90;;;2.67;;
19291;SDS011;9779;51.756;7.450;2022-10-16T00:16:15;4.40;;;2.60;;
19291;SDS011;9779;51.756;7.450;2022-10-16T00:18:41;3.27;;;2.80;;
19291;SDS011;9779;51.756;7.450;2022-10-16T00:21:08;1.90;;;1.80;;
19291;SDS011;9779;51.756;7.450;2022-10-16T00:23:36;5.00;;;2.63;;
19291;SDS011;9779;51.756;7.450;2022-10-16T00:26:03;2.80;;;2.60;;
19291;SDS011;9779;51.756;7.450;2022-10-16T00:28:31;3.03;;;2.83;;
19291;SDS011;9779;51.756;7.450;2022-10-16T00:30:57;4.83;;;3.20;;
19291;SDS011;9779;51.756;7.450;2022-10-16T00:33:22;2.63;;;2.43;;
19291;SDS011;9779;51.756;7.450;2022-10-16T00:35:48;2.30;;;2.00;;
19291;SDS011;9779;51.756;7.450;2022-10-16T00:38:15;4.97;;;2.53;;
19291;SDS011;9779;51.756;7.450;2022-10-16T00:40:41;2.60;;;2.40;;
19291;SDS011;9779;51.756;7.450;2022-10-16T00:45:59;3.80;;;2.40;;
19291;SDS011;9779;51.756;7.450;2022-10-16T00:48:26;3.03;;;2.80;;
19291;SDS011;9779;51.756;7.450;2022-10-16T00:50:52;2.83;;;2.63;;
19291;SDS011;9779;51.756;7.450;2022-10-16T00:53:18;2.50;;;2.30;;
19291;SDS011;9779;51.756;7.450;2022-10-16T00:55:44;2.97;;;2.67;;
19291;SDS011;9779;51.756;7.450;2022-10-16T00:58:10;2.77;;;2.57;;
19291;SDS011;9779;51.756;7.450;2022-10-16T01:00:36;2.70;;;2.50;;
19291;SDS011;9779;51.756;7.450;2022-10-16T01:03:02;4.43;;;2.47;;
19291;SDS011;9779;51.756;7.450;2022-10-16T01:05:51;2.27;;;2.10;;
19291;SDS011;9779;51.756;7.450;2022-10-16T01:08:19;5.43;;;2.53;;
19291;SDS011;9779;51.756;7.450;2022-10-16T01:10:56;3.23;;;3.03;;
19291;SDS011;9779;51.756;7.450;2022-10-16T01:13:36;3.87;;;2.93;;
19291;SDS011;9779;51.756;7.450;2022-10-16T01:16:07;2.77;;;2.57;;
19291;SDS011;9779;51.756;7.450;2022-10-16T01:18:37;4.73;;;2.17;;
19291;SDS011;9779;51.756;7.450;2022-10-16T01:26:19;2.40;;;2.20;;
19291;SDS011;9779;51.756;7.450;2022-10-16T01:28:55;5.07;;;1.93;;
19291;SDS011;9779;51.756;7.450;2022-10-16T01:31:26;8.80;;;2.40;;
19291;SDS011;9779;51.756;7.450;2022-10-16T01:33:59;2.80;;;2.20;;
19291;SDS011;9779;51.756;7.450;2022-10-16T01:36:46;4.90;;;2.37;;
19291;SDS011;9779;51.756;7.450;2022-10-16T01:39:24;2.57;;;2.37;;
19291;SDS011;9779;51.756;7.450;2022-10-16T01:42:27;7.53;;;2.47;;
19291;SDS011;9779;51.756;7.450;2022-10-16T01:44:51;2.80;;;2.60;;
19291;SDS011;9779;51.756;7.450;2022-10-16T01:47:19;5.27;;;2.27;;
19291;SDS011;9779;51.756;7.450;2022-10-16T01:49:48;3.00;;;2.63;;
19291;SDS011;9779;51.756;7.450;2022-10-16T01:52:17;5.80;;;2.47;;
19291;SDS011;9779;51.756;7.450;2022-10-16T01:54:47;2.67;;;2.37;;
19291;SDS011;9779;51.756;7.450;2022-10-16T01:57:16;7.40;;;2.70;;
19291;SDS011;9779;51.756;7.450;2022-10-16T01:59:44;4.70;;;3.43;;
19291;SDS011;9779;51.756;7.450;2022-10-16T02:02:12;3.10;;;2.90;;
19291;SDS011;9779;51.756;7.450;2022-10-16T02:04:42;2.97;;;2.73;;
19291;SDS011;9779;51.756;7.450;2022-10-16T02:07:11;3.37;;;2.47;;
19291;SDS011;9779;51.756;7.450;2022-10-16T02:09:37;2.30;;;2.10;;
19291;SDS011;9779;51.756;7.450;2022-10-16T02:12:06;2.30;;;2.10;;
19291;SDS011;9779;51.756;7.450;2022-10-16T02:14:54;3.60;;;2.03;;
19291;SDS011;9779;51.756;7.450;2022-10-16T02:17:20;4.50;;;2.37;;
19291;SDS011;9779;51.756;7.450;2022-10-16T02:19:46;11.97;;;2.07;;
19291;SDS011;9779;51.756;7.450;2022-10-16T02:22:22;3.13;;;1.83;;
19291;SDS011;9779;51.756;7.450;2022-10-16T02:27:53;1.57;;;1.47;;
19291;SDS011;9779;51.756;7.450;2022-10-16T02:30:36;2.97;;;1.83;;
19291;SDS011;9779;51.756;7.450;2022-10-16T02:33:08;1.83;;;1.70;;
19291;SDS011;9779;51.756;7.450;2022-10-16T02:35:36;2.20;;;2.00;;
19291;SDS011;9779;51.756;7.450;2022-10-16T02:38:02;2.77;;;2.13;;
19291;SDS011;9779;51.756;7.450;2022-10-16T02:40:29;2.20;;;2.00;;
19291;SDS011;9779;51.756;7.450;2022-10-16T02:42:55;1.63;;;1.43;;
19291;SDS011;9779;51.756;7.450;2022-10-16T02:45:20;3.23;;;2.03;;
19291;SDS011;9779;51.756;7.450;2022-10-16T02:47:47;2.63;;;2.43;;
19291;SDS011;9779;51.756;7.450;2022-10-16T02:50:12;3.07;;;1.93;;
19291;SDS011;9779;51.756;7.450;2022-10-16T02:52:38;2.37;;;1.80;;
19291;SDS011;9779;51.756;7.450;2022-10-16T02:55:04;2.63;;;1.90;;
19291;SDS011;9779;51.756;7.450;2022-10-16T02:57:30;1.97;;;1.60;;
19291;SDS011;9779;51.756;7.450;2022-10-16T02:59:56;4.90;;;1.60;;
19291;SDS011;9779;51.756;7.450;2022-10-16T03:02:22;1.87;;;1.67;;
19291;SDS011;9779;51.756;7.450;2022-10-16T03:04:47;3.27;;;1.90;;
19291;SDS011;9779;51.756;7.450;2022-10-16T03:07:13;2.10;;;1.90;;
19291;SDS011;9779;51.756;7.450;2022-10-16T03:09:39;1.90;;;1.53;;
19291;SDS011;9779;51.756;7.450;2022-10-16T03:12:04;4.23;;;1.63;;
19291;SDS011;9779;51.756;7.450;2022-10-16T03:14:30;2.50;;;1.43;;
19291;SDS011;9779;51.756;7.450;2022-10-16T03:16:55;1.80;;;1.57;;
19291;SDS011;9779;51.756;7.450;2022-10-16T03:19:21;3.87;;;2.17;;
19291;SDS011;9779;51.756;7.450;2022-10-16T03:21:46;1.83;;;1.40;;
19291;SDS011;9779;51.756;7.450;2022-10-16T03:24:12;6.03;;;1.70;;
19291;SDS011;9779;51.756;7.450;2022-10-16T03:26:38;1.50;;;1.30;;
19291;SDS011;9779;51.756;7.450;2022-10-16T03:29:03;2.97;;;1.30;;
19291;SDS011;9779;51.756;7.450;2022-10-16T03:31:29;1.67;;;1.57;;
19291;SDS011;9779;51.756;7.450;2022-10-16T03:33:55;1.53;;;1.43;;
19291;SDS011;9779;51.756;7.450;2022-10-16T03:36:21;4.27;;;1.50;;
19291;SDS011;9779;51.756;7.450;2022-10-16T03:38:47;1.70;;;1.60;;
19291;SDS011;9779;51.756;7.450;2022-10-16T03:41:13;1.63;;;1.30;;
19291;SDS011;9779;51.756;7.450;2022-10-16T03:43:38;1.30;;;1.20;;
19291;SDS011;9779;51.756;7.450;2022-10-16T03:46:04;1.30;;;1.20;;
19291;SDS011;9779;51.756;7.450;2022-10-16T03:48:29;2.60;;;1.23;;
19291;SDS011;9779;51.756;7.450;2022-10-16T03:50:55;1.47;;;1.30;;
19291;SDS011;9779;51.756;7.450;2022-10-16T03:53:21;2.17;;;1.30;;
19291;SDS011;9779;51.756;7.450;2022-10-16T03:55:46;3.33;;;1.43;;
19291;SDS011;9779;51.756;7.450;2022-10-16T03:58:12;5.37;;;1.50;;
19291;SDS011;9779;51.756;7.450;2022-10-16T04:00:41;5.20;;;1.37;;
19291;SDS011;9779;51.756;7.450;2022-10-16T04:03:07;2.60;;;1.40;;
19291;SDS011;9779;51.756;7.450;2022-10-16T04:05:33;1.83;;;1.33;;
19291;SDS011;9779;51.756;7.450;2022-10-16T04:07:58;2.93;;;1.40;;
19291;SDS011;9779;51.756;7.450;2022-10-16T04:10:24;3.13;;;1.50;;
19291;SDS011;9779;51.756;7.450;2022-10-16T04:12:49;3.07;;;1.23;;
19291;SDS011;9779;51.756;7.450;2022-10-16T04:15:15;2.03;;;1.40;;
19291;SDS011;9779;51.756;7.450;2022-10-16T04:17:40;1.70;;;1.20;;
19291;SDS011;9779;51.756;7.450;2022-10-16T04:20:06;1.20;;;1.10;;
19291;SDS011;9779;51.756;7.450;2022-10-16T04:22:32;1.83;;;1.10;;
19291;SDS011;9779;51.756;7.450;2022-10-16T04:24:57;3.27;;;1.60;;
19291;SDS011;9779;51.756;7.450;2022-10-16T04:27:23;1.50;;;1.40;;
19291;SDS011;9779;51.756;7.450;2022-10-16T04:29:48;1.47;;;1.27;;
19291;SDS011;9779;51.756;7.450;2022-10-16T04:32:14;1.40;;;1.30;;
19291;SDS011;9779;51.756;7.450;2022-10-16T04:34:39;1.40;;;1.20;;
19291;SDS011;9779;51.756;7.450;2022-10-16T04:37:05;1.30;;;1.20;;
19291;SDS011;9779;51.756;7.450;2022-10-16T04:39:31;1.43;;;1.33;;
19291;SDS011;9779;51.756;7.450;2022-10-16T04:41:56;3.53;;;1.10;;
19291;SDS011;9779;51.756;7.450;2022-10-16T04:44:22;1.37;;;1.10;;
19291;SDS011;9779;51.756;7.450;2022-10-16T04:46:50;2.93;;;1.40;;
19291;SDS011;9779;51.756;7.450;2022-10-16T04:49:16;3.47;;;1.00;;
19291;SDS011;9779;51.756;7.450;2022-10-16T04:51:41;2.00;;;1.00;;
19291;SDS011;9779;51.756;7.450;2022-10-16T04:54:08;6.67;;;1.23;;
19291;SDS011;9779;51.756;7.450;2022-10-16T04:56:34;1.30;;;1.20;;
19291;SDS011;9779;51.756;7.450;2022-10-16T04:59:05;3.27;;;0.90;;
19291;SDS011;9779;51.756;7.450;2022-10-16T05:01:30;3.53;;;1.10;;
19291;SDS011;9779;51.756;7.450;2022-10-16T05:03:56;6.23;;;1.77;;
19291;SDS011;9779;51.756;7.450;2022-10-16T05:06:22;1.20;;;1.10;;
19291;SDS011;9779;51.756;7.450;2022-10-16T05:08:47;10.07;;;1.20;;
19291;SDS011;9779;51.756;7.450;2022-10-16T05:11:13;5.13;;;1.00;;
19291;SDS011;9779;51.756;7.450;2022-10-16T05:13:38;1.30;;;1.20;;
19291;SDS011;9779;51.756;7.450;2022-10-16T05:16:04;1.23;;;1.03;;
19291;SDS011;9779;51.756;7.450;2022-10-16T05:18:29;4.00;;;1.47;;
19291;SDS011;9779;51.756;7.450;2022-10-16T05:20:55;1.77;;;1.13;;
19291;SDS011;9779;51.756;7.450;2022-10-16T05:23:20;4.10;;;1.30;;
19291;SDS011;9779;51.756;7.450;2022-10-16T05:25:55;1.20;;;0.97;;
19291;SDS011;9779;51.756;7.450;2022-10-16T05:28:23;1.00;;;0.90;;
19291;SDS011;9779;51.756;7.450;2022-10-16T05:30:52;2.00;;;1.20;;
19291;SDS011;9779;51.756;7.450;2022-10-16T05:33:21;1.43;;;1.33;;
19291;SDS011;9779;51.756;7.450;2022-10-16T05:35:48;0.90;;;0.90;;
19291;SDS011;9779;51.756;7.450;2022-10-16T05:38:14;2.47;;;1.00;;
19291;SDS011;9779;51.756;7.450;2022-10-16T05:40:41;1.17;;;1.03;;
19291;SDS011;9779;51.756;7.450;2022-10-16T05:43:06;6.70;;;2.23;;
19291;SDS011;9779;51.756;7.450;2022-10-16T05:45:32;1.03;;;0.97;;
19291;SDS011;9779;51.756;7.450;2022-10-16T05:47:58;1.10;;;1.00;;
19291;SDS011;9779;51.756;7.450;2022-10-16T05:50:24;8.40;;;1.17;;
19291;SDS011;9779;51.756;7.450;2022-10-16T05:52:50;1.83;;;1.00;;
19291;SDS011;9779;51.756;7.450;2022-10-16T05:55:16;1.07;;;1.00;;
19291;SDS011;9779;51.756;7.450;2022-10-16T05:57:41;1.33;;;0.80;;
19291;SDS011;9779;51.756;7.450;2022-10-16T06:00:07;0.83;;;0.83;;
19291;SDS011;9779;51.756;7.450;2022-10-16T06:02:33;1.07;;;0.80;;
19291;SDS011;9779;51.756;7.450;2022-10-16T06:04:58;0.60;;;0.60;;
19291;SDS011;9779;51.756;7.450;2022-10-16T06:07:24;3.03;;;1.00;;
19291;SDS011;9779;51.756;7.450;2022-10-16T06:09:50;2.43;;;1.07;;
19291;SDS011;9779;51.756;7.450;2022-10-16T06:12:17;3.20;;;0.87;;
19291;SDS011;9779;51.756;7.450;2022-10-16T06:14:43;1.23;;;0.90;;
19291;SDS011;9779;51.756;7.450;2022-10-16T06:17:09;5.53;;;1.23;;
19291;SDS011;9779;51.756;7.450;2022-10-16T06:19:35;1.23;;;0.97;;
19291;SDS011;9779;51.756;7.450;2022-10-16T06:22:00;1.00;;;0.90;;
19291;SDS011;9779;51.756;7.450;2022-10-16T06:24:27;1.80;;;0.80;;
19291;SDS011;9779;51.756;7.450;2022-10-16T06:26:53;0.77;;;0.70;;
19291;SDS011;9779;51.756;7.450;2022-10-16T06:29:18;0.90;;;0.90;;
19291;SDS011;9779;51.756;7.450;2022-10-16T06:31:44;1.07;;;0.70;;
19291;SDS011;9779;51.756;7.450;2022-10-16T06:34:09;1.23;;;0.93;;
19291;SDS011;9779;51.756;7.450;2022-10-16T06:36:36;1.00;;;0.90;;
19291;SDS011;9779;51.756;7.450;2022-10-16T06:39:03;0.87;;;0.87;;
19291;SDS011;9779;51.756;7.450;2022-10-16T06:41:30;0.90;;;0.70;;
19291;SDS011;9779;51.756;7.450;2022-10-16T06:43:56;1.10;;;1.00;;
19291;SDS011;9779;51.756;7.450;2022-10-16T06:46:22;2.53;;;0.90;;
19291;SDS011;9779;51.756;7.450;2022-10-16T06:48:49;2.30;;;1.37;;
19291;SDS011;9779;51.756;7.450;2022-10-16T06:51:15;1.50;;;0.87;;
19291;SDS011;9779;51.756;7.450;2022-10-16T06:53:43;1.83;;;0.80;;
19291;SDS011;9779;51.756;7.450;2022-10-16T06:56:21;1.43;;;1.00;;
19291;SDS011;9779;51.756;7.450;2022-10-16T06:58:51;3.30;;;1.50;;
19291;SDS011;9779;51.756;7.450;2022-10-16T07:01:18;1.33;;;1.27;;
19291;SDS011;9779;51.756;7.450;2022-10-16T07:03:45;2.37;;;1.00;;
19291;SDS011;9779;51.756;7.450;2022-10-16T07:06:12;1.30;;;0.70;;
19291;SDS011;9779;51.756;7.450;2022-10-16T07:08:43;0.90;;;0.87;;
19291;SDS011;9779;51.756;7.450;2022-10-16T07:11:11;1.70;;;0.90;;
19291;SDS011;9779;51.756;7.450;2022-10-16T07:13:39;1.80;;;0.97;;
19291;SDS011;9779;51.756;7.450;2022-10-16T07:16:17;0.97;;;0.87;;
19291;SDS011;9779;51.756;7.450;2022-10-16T07:18:44;0.80;;;0.77;;
19291;SDS011;9779;51.756;7.450;2022-10-16T07:21:15;0.80;;;0.80;;
19291;SDS011;9779;51.756;7.450;2022-10-16T07:23:42;2.63;;;1.00;;
19291;SDS011;9779;51.756;7.450;2022-10-16T07:26:08;0.80;;;0.73;;
19291;SDS011;9779;51.756;7.450;2022-10-16T07:28:35;1.10;;;1.00;;
19291;SDS011;9779;51.756;7.450;2022-10-16T07:31:05;3.63;;;0.70;;
19291;SDS011;9779;51.756;7.450;2022-10-16T07:33:32;1.83;;;1.07;;
19291;SDS011;9779;51.756;7.450;2022-10-16T07:35:59;0.93;;;0.90;;
19291;SDS011;9779;51.756;7.450;2022-10-16T07:38:24;0.83;;;0.83;;
19291;SDS011;9779;51.756;7.450;2022-10-16T07:40:57;1.40;;;1.30;;
19291;SDS011;9779;51.756;7.450;2022-10-16T07:43:27;0.87;;;0.87;;
19291;SDS011;9779;51.756;7.450;2022-10-16T07:45:53;3.20;;;0.80;;
19291;SDS011;9779;51.756;7.450;2022-10-16T07:48:19;1.23;;;1.07;;
19291;SDS011;9779;51.756;7.450;2022-10-16T07:50:46;2.30;;;1.10;;
19291;SDS011;9779;51.756;7.450;2022-10-16T07:53:11;1.20;;;1.10;;
19291;SDS011;9779;51.756;7.450;2022-10-16T07:55:37;2.13;;;0.90;;
19291;SDS011;9779;51.756;7.450;2022-10-16T07:58:04;1.30;;;1.20;;
19291;SDS011;9779;51.756;7.450;2022-10-16T08:00:30;1.97;;;1.00;;
19291;SDS011;9779;51.756;7.450;2022-10-16T08:02:56;2.23;;;1.03;;
19291;SDS011;9779;51.756;7.450;2022-10-16T08:05:25;3.10;;;0.97;;
19291;SDS011;9779;51.756;7.450;2022-10-16T08:07:51;1.00;;;0.90;;
19291;SDS011;9779;51.756;7.450;2022-10-16T08:10:18;5.23;;;1.43;;
19291;SDS011;9779;51.756;7.450;2022-10-16T08:12:44;3.53;;;1.27;;
19291;SDS011;9779;51.756;7.450;2022-10-16T08:15:10;4.57;;;1.50;;
19291;SDS011;9779;51.756;7.450;2022-10-16T08:17:36;2.30;;;0.90;;
19291;SDS011;9779;51.756;7.450;2022-10-16T08:20:01;2.77;;;1.20;;
19291;SDS011;9779;51.756;7.450;2022-10-16T08:22:27;0.93;;;0.90;;
19291;SDS011;9779;51.756;7.450;2022-10-16T08:24:53;2.53;;;1.10;;
19291;SDS011;9779;51.756;7.450;2022-10-16T08:27:18;2.63;;;1.03;;
19291;SDS011;9779;51.756;7.450;2022-10-16T08:29:44;0.83;;;0.80;;
19291;SDS011;9779;51.756;7.450;2022-10-16T08:32:09;4.10;;;1.07;;
19291;SDS011;9779;51.756;7.450;2022-10-16T08:34:35;3.63;;;0.80;;
19291;SDS011;9779;51.756;7.450;2022-10-16T08:37:00;3.57;;;1.30;;
19291;SDS011;9779;51.756;7.450;2022-10-16T08:39:27;5.50;;;0.83;;
19291;SDS011;9779;51.756;7.450;2022-10-16T08:41:59;4.60;;;1.23;;
19291;SDS011;9779;51.756;7.450;2022-10-16T08:44:46;5.07;;;1.00;;
19291;SDS011;9779;51.756;7.450;2022-10-16T08:49:58;1.57;;;1.00;;
19291;SDS011;9779;51.756;7.450;2022-10-16T08:52:31;0.67;;;0.67;;
19291;SDS011;9779;51.756;7.450;2022-10-16T08:55:00;6.37;;;1.00;;
19291;SDS011;9779;51.756;7.450;2022-10-16T08:57:27;2.67;;;0.90;;
19291;SDS011;9779;51.756;7.450;2022-10-16T08:59:53;2.57;;;1.03;;
19291;SDS011;9779;51.756;7.450;2022-10-16T09:02:32;1.53;;;0.90;;
19291;SDS011;9779;51.756;7.450;2022-10-16T09:05:24;1.53;;;0.90;;
19291;SDS011;9779;51.756;7.450;2022-10-16T09:07:55;2.43;;;0.87;;
19291;SDS011;9779;51.756;7.450;2022-10-16T09:10:49;1.87;;;0.80;;
19291;SDS011;9779;51.756;7.450;2022-10-16T09:16:22;1.60;;;0.80;;
19291;SDS011;9779;51.756;7.450;2022-10-16T09:21:40;1.80;;;0.80;;
19291;SDS011;9779;51.756;7.450;2022-10-16T09:24:09;3.40;;;0.80;;
19291;SDS011;9779;51.756;7.450;2022-10-16T09:26:39;2.83;;;0.80;;
19291;SDS011;9779;51.756;7.450;2022-10-16T09:29:04;3.60;;;0.80;;
19291;SDS011;9779;51.756;7.450;2022-10-16T09:31:30;3.90;;;0.60;;
19291;SDS011;9779;51.756;7.450;2022-10-16T09:33:57;3.73;;;1.03;;
19291;SDS011;9779;51.756;7.450;2022-10-16T09:36:27;1.83;;;1.07;;
19291;SDS011;9779;51.756;7.450;2022-10-16T09:39:04;3.10;;;1.23;;
19291;SDS011;9779;51.756;7.450;2022-10-16T09:41:33;3.03;;;0.90;;
19291;SDS011;9779;51.756;7.450;2022-10-16T09:44:01;3.43;;;1.20;;
19291;SDS011;9779;51.756;7.450;2022-10-16T09:46:35;3.17;;;0.70;;
19291;SDS011;9779;51.756;7.450;2022-10-16T09:49:18;3.33;;;0.87;;
19291;SDS011;9779;51.756;7.450;2022-10-16T09:51:47;3.57;;;1.00;;
19291;SDS011;9779;51.756;7.450;2022-10-16T09:54:14;3.63;;;1.03;;
19291;SDS011;9779;51.756;7.450;2022-10-16T09:56:41;5.67;;;1.20;;
19291;SDS011;9779;51.756;7.450;2022-10-16T10:01:39;5.43;;;1.50;;
19291;SDS011;9779;51.756;7.450;2022-10-16T10:04:07;2.30;;;1.13;;
19291;SDS011;9779;51.756;7.450;2022-10-16T10:06:37;2.77;;;1.10;;
19291;SDS011;9779;51.756;7.450;2022-10-16T10:12:03;10.37;;;1.37;;
19291;SDS011;9779;51.756;7.450;2022-10-16T10:14:34;3.77;;;1.10;;
19291;SDS011;9779;51.756;7.450;2022-10-16T10:19:37;5.40;;;1.00;;
19291;SDS011;9779;51.756;7.450;2022-10-16T10:22:32;4.80;;;1.20;;
19291;SDS011;9779;51.756;7.450;2022-10-16T10:28:00;4.00;;;1.13;;
19291;SDS011;9779;51.756;7.450;2022-10-16T10:36:37;4.07;;;1.30;;
19291;SDS011;9779;51.756;7.450;2022-10-16T10:39:08;6.23;;;1.30;;
19291;SDS011;9779;51.756;7.450;2022-10-16T10:42:08;3.03;;;1.03;;
19291;SDS011;9779;51.756;7.450;2022-10-16T10:44:51;4.33;;;0.73;;
19291;SDS011;9779;51.756;7.450;2022-10-16T10:47:42;4.20;;;0.83;;
19291;SDS011;9779;51.756;7.450;2022-10-16T10:50:39;3.67;;;1.10;;
19291;SDS011;9779;51.756;7.450;2022-10-16T11:01:12;2.27;;;1.07;;
19291;SDS011;9779;51.756;7.450;2022-10-16T11:06:25;2.03;;;0.80;;
19291;SDS011;9779;51.756;7.450;2022-10-16T11:09:02;1.30;;;0.60;;
19291;SDS011;9779;51.756;7.450;2022-10-16T11:14:20;3.40;;;0.80;;
19291;SDS011;9779;51.756;7.450;2022-10-16T11:23:15;4.10;;;0.50;;
19291;SDS011;9779;51.756;7.450;2022-10-16T11:25:50;2.37;;;0.80;;
19291;SDS011;9779;51.756;7.450;2022-10-16T11:28:18;0.80;;;0.70;;
19291;SDS011;9779;51.756;7.450;2022-10-16T11:38:33;1.10;;;0.90;;
19291;SDS011;9779;51.756;7.450;2022-10-16T11:47:35;3.03;;;0.93;;
19291;SDS011;9779;51.756;7.450;2022-10-16T11:50:24;1.30;;;0.80;;
19291;SDS011;9779;51.756;7.450;2022-10-16T11:53:02;1.27;;;0.67;;
19291;SDS011;9779;51.756;7.450;2022-10-16T11:55:34;3.03;;;0.60;;
19291;SDS011;9779;51.756;7.450;2022-10-16T11:58:05;3.27;;;0.43;;
19291;SDS011;9779;51.756;7.450;2022-10-16T12:00:37;2.17;;;0.70;;
19291;SDS011;9779;51.756;7.450;2022-10-16T12:03:29;1.70;;;0.63;;
19291;SDS011;9779;51.756;7.450;2022-10-16T12:09:00;0.53;;;0.40;;
19291;SDS011;9779;51.756;7.450;2022-10-16T12:13:51;2.07;;;0.87;;
19291;SDS011;9779;51.756;7.450;2022-10-16T12:16:28;2.13;;;0.87;;
19291;SDS011;9779;51.756;7.450;2022-10-16T12:19:14;2.83;;;0.93;;
19291;SDS011;9779;51.756;7.450;2022-10-16T12:21:41;3.77;;;0.90;;
19291;SDS011;9779;51.756;7.450;2022-10-16T12:24:19;2.27;;;0.73;;
19291;SDS011;9779;51.756;7.450;2022-10-16T12:27:21;0.97;;;0.50;;
19291;SDS011;9779;51.756;7.450;2022-10-16T12:29:57;7.33;;;0.87;;
19291;SDS011;9779;51.756;7.450;2022-10-16T12:35:01;1.70;;;0.70;;
19291;SDS011;9779;51.756;7.450;2022-10-16T12:37:33;1.07;;;0.80;;
19291;SDS011;9779;51.756;7.450;2022-10-16T12:40:10;7.37;;;0.80;;
19291;SDS011;9779;51.756;7.450;2022-10-16T12:42:40;2.57;;;1.10;;
19291;SDS011;9779;51.756;7.450;2022-10-16T12:47:58;4.43;;;1.13;;
19291;SDS011;9779;51.756;7.450;2022-10-16T12:52:56;2.07;;;1.30;;
19291;SDS011;9779;51.756;7.450;2022-10-16T12:55:22;6.80;;;1.70;;
19291;SDS011;9779;51.756;7.450;2022-10-16T13:01:03;3.70;;;1.07;;
19291;SDS011;9779;51.756;7.450;2022-10-16T13:06:28;2.83;;;0.70;;
19291;SDS011;9779;51.756;7.450;2022-10-16T13:09:26;1.90;;;0.83;;
19291;SDS011;9779;51.756;7.450;2022-10-16T13:12:05;2.17;;;1.00;;
19291;SDS011;9779;51.756;7.450;2022-10-16T13:20:13;2.10;;;0.80;;
19291;SDS011;9779;51.756;7.450;2022-10-16T13:22:53;2.20;;;0.60;;
19291;SDS011;9779;51.756;7.450;2022-10-16T13:28:08;1.57;;;0.70;;
19291;SDS011;9779;51.756;7.450;2022-10-16T13:30:41;9.37;;;0.67;;
19291;SDS011;9779;51.756;7.450;2022-10-16T13:33:45;0.57;;;0.40;;
19291;SDS011;9779;51.756;7.450;2022-10-16T13:36:04;1.43;;;0.73;;
19291;SDS011;9779;51.756;7.450;2022-10-16T13:38:32;2.83;;;0.53;;
19291;SDS011;9779;51.756;7.450;2022-10-16T13:41:00;0.97;;;0.50;;
19291;SDS011;9779;51.756;7.450;2022-10-16T13:46:00;1.07;;;0.57;;
19291;SDS011;9779;51.756;7.450;2022-10-16T13:48:32;1.90;;;0.60;;
19291;SDS011;9779;51.756;7.450;2022-10-16T13:51:15;1.37;;;0.60;;
19291;SDS011;9779;51.756;7.450;2022-10-16T13:53:42;1.53;;;0.57;;
19291;SDS011;9779;51.756;7.450;2022-10-16T13:56:13;1.43;;;0.50;;
19291;SDS011;9779;51.756;7.450;2022-10-16T13:58:41;1.20;;;0.50;;
19291;SDS011;9779;51.756;7.450;2022-10-16T14:01:20;0.57;;;0.38;;
19291;SDS011;9779;51.756;7.450;2022-10-16T14:03:50;2.57;;;0.50;;
19291;SDS011;9779;51.756;7.450;2022-10-16T14:06:20;2.37;;;0.93;;
19291;SDS011;9779;51.756;7.450;2022-10-16T14:09:09;1.47;;;0.50;;
19291;SDS011;9779;51.756;7.450;2022-10-16T14:11:46;0.80;;;0.40;;
19291;SDS011;9779;51.756;7.450;2022-10-16T14:14:16;1.33;;;0.50;;
19291;SDS011;9779;51.756;7.450;2022-10-16T14:16:43;4.17;;;0.67;;
19291;SDS011;9779;51.756;7.450;2022-10-16T14:19:18;1.67;;;1.03;;
19291;SDS011;9779;51.756;7.450;2022-10-16T14:21:47;2.63;;;0.40;;
19291;SDS011;9779;51.756;7.450;2022-10-16T14:24:22;1.80;;;0.63;;
19291;SDS011;9779;51.756;7.450;2022-10-16T14:26:51;2.27;;;0.40;;
19291;SDS011;9779;51.756;7.450;2022-10-16T14:29:19;0.93;;;0.60;;
19291;SDS011;9779;51.756;7.450;2022-10-16T14:31:55;0.97;;;0.30;;
19291;SDS011;9779;51.756;7.450;2022-10-16T14:34:52;1.00;;;0.53;;
19291;SDS011;9779;51.756;7.450;2022-10-16T14:37:22;0.87;;;0.33;;
19291;SDS011;9779;51.756;7.450;2022-10-16T14:39:53;2.47;;;0.63;;
19291;SDS011;9779;51.756;7.450;2022-10-16T14:42:20;1.43;;;0.50;;
19291;SDS011;9779;51.756;7.450;2022-10-16T14:44:49;3.07;;;0.50;;
19291;SDS011;9779;51.756;7.450;2022-10-16T14:47:18;3.97;;;0.60;;
19291;SDS011;9779;51.756;7.450;2022-10-16T14:49:50;0.87;;;0.57;;
19291;SDS011;9779;51.756;7.450;2022-10-16T14:52:15;1.27;;;0.60;;
19291;SDS011;9779;51.756;7.450;2022-10-16T14:54:41;1.07;;;0.57;;
19291;SDS011;9779;51.756;7.450;2022-10-16T14:57:17;1.93;;;0.50;;
19291;SDS011;9779;51.756;7.450;2022-10-16T14:59:44;2.37;;;0.70;;
19291;SDS011;9779;51.756;7.450;2022-10-16T15:04:45;1.43;;;0.60;;
19291;SDS011;9779;51.756;7.450;2022-10-16T15:07:11;3.50;;;0.97;;
19291;SDS011;9779;51.756;7.450;2022-10-16T15:09:36;2.67;;;0.40;;
19291;SDS011;9779;51.756;7.450;2022-10-16T15:12:02;0.97;;;0.50;;
19291;SDS011;9779;51.756;7.450;2022-10-16T15:14:27;1.67;;;0.70;;
19291;SDS011;9779;51.756;7.450;2022-10-16T15:16:53;2.03;;;1.33;;
19291;SDS011;9779;51.756;7.450;2022-10-16T15:19:18;1.23;;;0.80;;
19291;SDS011;9779;51.756;7.450;2022-10-16T15:21:44;1.83;;;0.70;;
19291;SDS011;9779;51.756;7.450;2022-10-16T15:24:13;2.70;;;0.80;;
19291;SDS011;9779;51.756;7.450;2022-10-16T15:26:39;5.13;;;0.67;;
19291;SDS011;9779;51.756;7.450;2022-10-16T15:29:05;5.47;;;0.80;;
19291;SDS011;9779;51.756;7.450;2022-10-16T15:31:31;1.37;;;0.90;;
19291;SDS011;9779;51.756;7.450;2022-10-16T15:33:56;2.13;;;1.03;;
19291;SDS011;9779;51.756;7.450;2022-10-16T15:36:29;5.27;;;1.13;;
19291;SDS011;9779;51.756;7.450;2022-10-16T15:38:58;2.43;;;0.80;;
19291;SDS011;9779;51.756;7.450;2022-10-16T15:41:24;1.63;;;0.90;;
19291;SDS011;9779;51.756;7.450;2022-10-16T15:43:50;2.00;;;0.80;;
19291;SDS011;9779;51.756;7.450;2022-10-16T15:46:20;3.37;;;1.30;;
19291;SDS011;9779;51.756;7.450;2022-10-16T15:49:02;3.23;;;2.20;;
19291;SDS011;9779;51.756;7.450;2022-10-16T15:51:29;3.47;;;1.40;;
19291;SDS011;9779;51.756;7.450;2022-10-16T15:53:57;2.33;;;1.17;;
19291;SDS011;9779;51.756;7.450;2022-10-16T15:56:25;4.47;;;0.70;;
19291;SDS011;9779;51.756;7.450;2022-10-16T15:58:51;1.97;;;0.73;;
19291;SDS011;9779;51.756;7.450;2022-10-16T16:01:18;9.57;;;0.67;;
19291;SDS011;9779;51.756;7.450;2022-10-16T16:03:44;1.27;;;0.60;;
19291;SDS011;9779;51.756;7.450;2022-10-16T16:06:10;1.20;;;0.80;;
19291;SDS011;9779;51.756;7.450;2022-10-16T16:08:37;1.93;;;0.70;;
19291;SDS011;9779;51.756;7.450;2022-10-16T16:11:07;1.67;;;0.60;;
19291;SDS011;9779;51.756;7.450;2022-10-16T16:13:34;1.30;;;0.60;;
19291;SDS011;9779;51.756;7.450;2022-10-16T16:16:04;5.40;;;0.93;;
19291;SDS011;9779;51.756;7.450;2022-10-16T16:18:31;1.03;;;0.70;;
19291;SDS011;9779;51.756;7.450;2022-10-16T16:20:56;5.23;;;0.70;;
19291;SDS011;9779;51.756;7.450;2022-10-16T16:23:28;3.27;;;0.67;;
19291;SDS011;9779;51.756;7.450;2022-10-16T16:26:04;2.20;;;0.70;;
19291;SDS011;9779;51.756;7.450;2022-10-16T16:28:40;2.50;;;0.90;;
19291;SDS011;9779;51.756;7.450;2022-10-16T16:31:06;10.73;;;0.90;;
19291;SDS011;9779;51.756;7.450;2022-10-16T16:33:32;2.17;;;0.90;;
19291;SDS011;9779;51.756;7.450;2022-10-16T16:35:58;3.33;;;1.20;;
19291;SDS011;9779;51.756;7.450;2022-10-16T16:38:29;3.23;;;1.40;;
19291;SDS011;9779;51.756;7.450;2022-10-16T16:40:55;1.87;;;1.20;;
19291;SDS011;9779;51.756;7.450;2022-10-16T16:43:25;1.67;;;1.43;;
19291;SDS011;9779;51.756;7.450;2022-10-16T16:45:52;3.40;;;1.30;;
19291;SDS011;9779;51.756;7.450;2022-10-16T16:48:18;1.70;;;1.47;;
19291;SDS011;9779;51.756;7.450;2022-10-16T16:50:44;2.43;;;1.10;;
19291;SDS011;9779;51.756;7.450;2022-10-16T16:53:09;4.67;;;1.33;;
19291;SDS011;9779;51.756;7.450;2022-10-16T16:55:35;2.60;;;1.60;;
19291;SDS011;9779;51.756;7.450;2022-10-16T16:58:00;6.07;;;2.20;;